sensor_id;sensor_type;location;lat;lon;timestamp;P1;durP1;ratioP1;P2;durP2;ratioP2
63016;SDS011;50274;45.640;11.756;2022-10-17T00:01:09;47.17;;;30.35;;
63016;SDS011;50274;45.640;11.756;2022-10-17T00:03:36;43.03;;;27.73;;
63016;SDS011;50274;45.640;11.756;2022-10-17T00:06:07;43.67;;;29.27;;
63016;SDS011;50274;45.640;11.756;2022-10-17T00:08:35;42.03;;;27.23;;
63016;SDS011;50274;45.640;11.756;2022-10-17T00:11:11;48.22;;;30.48;;
63016;SDS011;50274;45.640;11.756;2022-10-17T00:13:43;43.63;;;28.50;;
63016;SDS011;50274;45.640;11.756;2022-10-17T00:16:09;45.03;;;28.63;;
63016;SDS011;50274;45.640;11.756;2022-10-17T00:18:35;42.03;;;26.37;;
63016;SDS011;50274;45.640;11.756;2022-10-17T00:21:01;40.30;;;26.08;;
63016;SDS011;50274;45.640;11.756;2022-10-17T00:23:27;40.00;;;26.85;;
63016;SDS011;50274;45.640;11.756;2022-10-17T00:25:58;40.97;;;27.87;;
63016;SDS011;50274;45.640;11.756;2022-10-17T00:28:29;41.53;;;26.67;;
63016;SDS011;50274;45.640;11.756;2022-10-17T00:30:59;34.95;;;23.67;;
63016;SDS011;50274;45.640;11.756;2022-10-17T00:33:26;38.58;;;25.13;;
63016;SDS011;50274;45.640;11.756;2022-10-17T00:36:35;42.35;;;27.77;;
63016;SDS011;50274;45.640;11.756;2022-10-17T00:38:46;37.53;;;24.23;;
63016;SDS011;50274;45.640;11.756;2022-10-17T00:41:15;40.35;;;27.30;;
63016;SDS011;50274;45.640;11.756;2022-10-17T00:43:49;40.60;;;26.08;;
63016;SDS011;50274;45.640;11.756;2022-10-17T00:46:22;40.42;;;26.30;;
63016;SDS011;50274;45.640;11.756;2022-10-17T00:48:50;38.25;;;27.02;;
63016;SDS011;50274;45.640;11.756;2022-10-17T00:51:18;37.83;;;25.20;;
63016;SDS011;50274;45.640;11.756;2022-10-17T00:53:46;38.45;;;26.30;;
63016;SDS011;50274;45.640;11.756;2022-10-17T00:56:13;40.30;;;27.30;;
63016;SDS011;50274;45.640;11.756;2022-10-17T00:58:40;35.78;;;24.77;;
63016;SDS011;50274;45.640;11.756;2022-10-17T01:01:06;38.92;;;24.35;;
63016;SDS011;50274;45.640;11.756;2022-10-17T01:03:31;38.23;;;24.63;;
63016;SDS011;50274;45.640;11.756;2022-10-17T01:05:57;36.15;;;23.25;;
63016;SDS011;50274;45.640;11.756;2022-10-17T01:08:23;38.95;;;25.40;;
63016;SDS011;50274;45.640;11.756;2022-10-17T01:13:53;34.03;;;23.45;;
63016;SDS011;50274;45.640;11.756;2022-10-17T01:16:35;34.72;;;23.40;;
63016;SDS011;50274;45.640;11.756;2022-10-17T01:20:13;34.97;;;23.95;;
63016;SDS011;50274;45.640;11.756;2022-10-17T01:22:21;37.73;;;24.70;;
63016;SDS011;50274;45.640;11.756;2022-10-17T01:32:39;41.83;;;26.67;;
63016;SDS011;50274;45.640;11.756;2022-10-17T01:35:35;37.57;;;24.00;;
63016;SDS011;50274;45.640;11.756;2022-10-17T01:38:09;38.90;;;25.48;;
63016;SDS011;50274;45.640;11.756;2022-10-17T01:40:42;39.95;;;26.05;;
63016;SDS011;50274;45.640;11.756;2022-10-17T01:43:38;37.00;;;23.30;;
63016;SDS011;50274;45.640;11.756;2022-10-17T01:46:19;38.65;;;24.77;;
63016;SDS011;50274;45.640;11.756;2022-10-17T01:48:49;35.67;;;23.97;;
63016;SDS011;50274;45.640;11.756;2022-10-17T01:51:18;41.20;;;26.45;;
63016;SDS011;50274;45.640;11.756;2022-10-17T01:53:50;35.42;;;23.83;;
63016;SDS011;50274;45.640;11.756;2022-10-17T01:56:21;35.33;;;22.88;;
63016;SDS011;50274;45.640;11.756;2022-10-17T01:58:55;36.03;;;23.48;;
63016;SDS011;50274;45.640;11.756;2022-10-17T02:01:25;37.77;;;24.23;;
63016;SDS011;50274;45.640;11.756;2022-10-17T02:03:53;36.08;;;24.40;;
63016;SDS011;50274;45.640;11.756;2022-10-17T02:06:22;40.70;;;25.67;;
63016;SDS011;50274;45.640;11.756;2022-10-17T02:08:48;37.45;;;24.83;;
63016;SDS011;50274;45.640;11.756;2022-10-17T02:11:19;38.83;;;23.70;;
63016;SDS011;50274;45.640;11.756;2022-10-17T02:14:30;35.38;;;22.77;;
63016;SDS011;50274;45.640;11.756;2022-10-17T02:19:22;32.33;;;22.33;;
63016;SDS011;50274;45.640;11.756;2022-10-17T02:27:11;34.38;;;21.88;;
63016;SDS011;50274;45.640;11.756;2022-10-17T02:29:48;32.53;;;22.08;;
63016;SDS011;50274;45.640;11.756;2022-10-17T02:32:23;32.60;;;21.92;;
63016;SDS011;50274;45.640;11.756;2022-10-17T02:35:01;33.50;;;22.70;;
63016;SDS011;50274;45.640;11.756;2022-10-17T02:37:31;32.10;;;20.90;;
63016;SDS011;50274;45.640;11.756;2022-10-17T02:39:58;32.28;;;20.17;;
63016;SDS011;50274;45.640;11.756;2022-10-17T02:42:25;30.25;;;20.80;;
63016;SDS011;50274;45.640;11.756;2022-10-17T02:44:52;34.22;;;21.98;;
63016;SDS011;50274;45.640;11.756;2022-10-17T02:47:31;34.40;;;22.05;;
63016;SDS011;50274;45.640;11.756;2022-10-17T02:50:16;31.53;;;21.53;;
63016;SDS011;50274;45.640;11.756;2022-10-17T02:52:54;35.53;;;21.98;;
63016;SDS011;50274;45.640;11.756;2022-10-17T02:55:23;31.42;;;22.08;;
63016;SDS011;50274;45.640;11.756;2022-10-17T02:57:56;31.80;;;20.73;;
63016;SDS011;50274;45.640;11.756;2022-10-17T03:00:26;31.90;;;20.60;;
63016;SDS011;50274;45.640;11.756;2022-10-17T03:02:53;31.67;;;21.30;;
63016;SDS011;50274;45.640;11.756;2022-10-17T03:05:24;33.03;;;22.05;;
63016;SDS011;50274;45.640;11.756;2022-10-17T03:07:52;34.88;;;23.02;;
63016;SDS011;50274;45.640;11.756;2022-10-17T03:10:19;38.33;;;21.77;;
63016;SDS011;50274;45.640;11.756;2022-10-17T03:12:45;37.78;;;22.80;;
63016;SDS011;50274;45.640;11.756;2022-10-17T03:15:11;31.83;;;21.33;;
63016;SDS011;50274;45.640;11.756;2022-10-17T03:17:38;32.63;;;20.65;;
63016;SDS011;50274;45.640;11.756;2022-10-17T03:20:04;32.72;;;21.98;;
63016;SDS011;50274;45.640;11.756;2022-10-17T03:22:30;32.97;;;20.33;;
63016;SDS011;50274;45.640;11.756;2022-10-17T03:24:57;30.13;;;20.15;;
63016;SDS011;50274;45.640;11.756;2022-10-17T03:27:22;30.17;;;20.08;;
63016;SDS011;50274;45.640;11.756;2022-10-17T03:29:48;31.77;;;20.20;;
63016;SDS011;50274;45.640;11.756;2022-10-17T03:32:14;31.60;;;20.33;;
63016;SDS011;50274;45.640;11.756;2022-10-17T03:34:40;29.48;;;20.17;;
63016;SDS011;50274;45.640;11.756;2022-10-17T03:37:06;29.97;;;19.80;;
63016;SDS011;50274;45.640;11.756;2022-10-17T03:39:32;31.88;;;20.75;;
63016;SDS011;50274;45.640;11.756;2022-10-17T03:41:57;29.83;;;20.40;;
63016;SDS011;50274;45.640;11.756;2022-10-17T03:44:23;29.27;;;19.30;;
63016;SDS011;50274;45.640;11.756;2022-10-17T03:46:49;30.58;;;19.13;;
63016;SDS011;50274;45.640;11.756;2022-10-17T03:49:15;29.77;;;19.77;;
63016;SDS011;50274;45.640;11.756;2022-10-17T03:51:40;28.38;;;19.83;;
63016;SDS011;50274;45.640;11.756;2022-10-17T03:54:06;33.40;;;20.77;;
63016;SDS011;50274;45.640;11.756;2022-10-17T03:56:32;31.17;;;20.20;;
63016;SDS011;50274;45.640;11.756;2022-10-17T03:58:58;29.95;;;20.25;;
63016;SDS011;50274;45.640;11.756;2022-10-17T04:01:24;33.03;;;20.43;;
63016;SDS011;50274;45.640;11.756;2022-10-17T04:03:50;30.77;;;20.83;;
63016;SDS011;50274;45.640;11.756;2022-10-17T04:06:18;30.13;;;19.52;;
63016;SDS011;50274;45.640;11.756;2022-10-17T04:08:45;29.98;;;19.50;;
63016;SDS011;50274;45.640;11.756;2022-10-17T04:11:15;27.00;;;18.03;;
63016;SDS011;50274;45.640;11.756;2022-10-17T04:13:44;30.13;;;17.85;;
63016;SDS011;50274;45.640;11.756;2022-10-17T04:16:11;32.22;;;19.08;;
63016;SDS011;50274;45.640;11.756;2022-10-17T04:18:39;25.33;;;18.00;;
63016;SDS011;50274;45.640;11.756;2022-10-17T04:21:05;27.65;;;18.27;;
63016;SDS011;50274;45.640;11.756;2022-10-17T04:23:32;28.20;;;18.23;;
63016;SDS011;50274;45.640;11.756;2022-10-17T04:25:58;30.25;;;18.73;;
63016;SDS011;50274;45.640;11.756;2022-10-17T04:28:26;29.38;;;18.92;;
63016;SDS011;50274;45.640;11.756;2022-10-17T04:30:58;29.17;;;18.63;;
63016;SDS011;50274;45.640;11.756;2022-10-17T04:33:25;27.35;;;17.98;;
63016;SDS011;50274;45.640;11.756;2022-10-17T04:35:57;26.17;;;16.70;;
63016;SDS011;50274;45.640;11.756;2022-10-17T04:38:24;25.15;;;17.23;;
63016;SDS011;50274;45.640;11.756;2022-10-17T04:40:51;27.00;;;17.63;;
63016;SDS011;50274;45.640;11.756;2022-10-17T04:43:17;28.52;;;18.30;;
63016;SDS011;50274;45.640;11.756;2022-10-17T04:45:43;26.43;;;18.00;;
63016;SDS011;50274;45.640;11.756;2022-10-17T04:48:09;25.77;;;18.13;;
63016;SDS011;50274;45.640;11.756;2022-10-17T04:50:35;27.95;;;17.80;;
63016;SDS011;50274;45.640;11.756;2022-10-17T04:53:01;28.17;;;17.97;;
63016;SDS011;50274;45.640;11.756;2022-10-17T04:55:26;26.08;;;16.92;;
63016;SDS011;50274;45.640;11.756;2022-10-17T04:57:52;30.73;;;18.90;;
63016;SDS011;50274;45.640;11.756;2022-10-17T05:00:18;26.50;;;17.17;;
63016;SDS011;50274;45.640;11.756;2022-10-17T05:02:44;24.65;;;17.55;;
63016;SDS011;50274;45.640;11.756;2022-10-17T05:05:10;25.80;;;16.98;;
63016;SDS011;50274;45.640;11.756;2022-10-17T05:07:39;26.80;;;18.27;;
63016;SDS011;50274;45.640;11.756;2022-10-17T05:10:05;28.02;;;17.55;;
63016;SDS011;50274;45.640;11.756;2022-10-17T05:12:32;33.33;;;18.88;;
63016;SDS011;50274;45.640;11.756;2022-10-17T05:14:57;26.93;;;18.07;;
63016;SDS011;50274;45.640;11.756;2022-10-17T05:17:23;28.48;;;18.80;;
63016;SDS011;50274;45.640;11.756;2022-10-17T05:19:49;31.38;;;18.88;;
63016;SDS011;50274;45.640;11.756;2022-10-17T05:22:15;29.40;;;18.83;;
63016;SDS011;50274;45.640;11.756;2022-10-17T05:24:41;31.90;;;20.38;;
63016;SDS011;50274;45.640;11.756;2022-10-17T05:27:06;33.60;;;18.97;;
63016;SDS011;50274;45.640;11.756;2022-10-17T05:29:33;29.23;;;19.50;;
63016;SDS011;50274;45.640;11.756;2022-10-17T05:31:59;28.02;;;18.90;;
63016;SDS011;50274;45.640;11.756;2022-10-17T05:34:24;28.63;;;19.00;;
63016;SDS011;50274;45.640;11.756;2022-10-17T05:36:50;30.60;;;18.85;;
63016;SDS011;50274;45.640;11.756;2022-10-17T05:39:16;28.08;;;18.15;;
63016;SDS011;50274;45.640;11.756;2022-10-17T05:41:44;27.50;;;18.70;;
63016;SDS011;50274;45.640;11.756;2022-10-17T05:44:10;30.00;;;18.20;;
63016;SDS011;50274;45.640;11.756;2022-10-17T05:46:37;31.50;;;19.30;;
63016;SDS011;50274;45.640;11.756;2022-10-17T05:49:03;28.15;;;18.63;;
63016;SDS011;50274;45.640;11.756;2022-10-17T05:51:30;31.97;;;19.30;;
63016;SDS011;50274;45.640;11.756;2022-10-17T05:53:57;30.48;;;19.42;;
63016;SDS011;50274;45.640;11.756;2022-10-17T05:56:23;27.42;;;18.65;;
63016;SDS011;50274;45.640;11.756;2022-10-17T05:58:49;29.80;;;18.80;;
63016;SDS011;50274;45.640;11.756;2022-10-17T06:01:15;30.70;;;18.83;;
63016;SDS011;50274;45.640;11.756;2022-10-17T06:03:41;26.10;;;17.55;;
63016;SDS011;50274;45.640;11.756;2022-10-17T06:06:08;27.50;;;18.43;;
63016;SDS011;50274;45.640;11.756;2022-10-17T06:08:36;34.28;;;19.13;;
63016;SDS011;50274;45.640;11.756;2022-10-17T06:11:02;33.60;;;19.67;;
63016;SDS011;50274;45.640;11.756;2022-10-17T06:13:28;29.20;;;18.13;;
63016;SDS011;50274;45.640;11.756;2022-10-17T06:15:54;32.33;;;20.52;;
63016;SDS011;50274;45.640;11.756;2022-10-17T06:18:21;31.53;;;18.80;;
63016;SDS011;50274;45.640;11.756;2022-10-17T06:20:47;31.08;;;19.80;;
63016;SDS011;50274;45.640;11.756;2022-10-17T06:23:13;33.92;;;19.83;;
63016;SDS011;50274;45.640;11.756;2022-10-17T06:25:38;36.63;;;21.17;;
63016;SDS011;50274;45.640;11.756;2022-10-17T06:28:04;36.75;;;20.55;;
63016;SDS011;50274;45.640;11.756;2022-10-17T06:30:30;32.78;;;20.20;;
63016;SDS011;50274;45.640;11.756;2022-10-17T06:32:56;38.03;;;20.03;;
63016;SDS011;50274;45.640;11.756;2022-10-17T06:35:22;36.20;;;20.65;;
63016;SDS011;50274;45.640;11.756;2022-10-17T06:37:48;32.13;;;20.40;;
63016;SDS011;50274;45.640;11.756;2022-10-17T06:40:14;30.77;;;20.50;;
63016;SDS011;50274;45.640;11.756;2022-10-17T06:42:41;33.90;;;21.60;;
63016;SDS011;50274;45.640;11.756;2022-10-17T06:45:07;34.13;;;20.50;;
63016;SDS011;50274;45.640;11.756;2022-10-17T06:47:34;38.20;;;22.05;;
63016;SDS011;50274;45.640;11.756;2022-10-17T06:50:00;41.00;;;23.10;;
63016;SDS011;50274;45.640;11.756;2022-10-17T06:52:26;42.53;;;22.42;;
63016;SDS011;50274;45.640;11.756;2022-10-17T06:54:51;45.55;;;24.00;;
63016;SDS011;50274;45.640;11.756;2022-10-17T06:57:17;39.40;;;22.83;;
63016;SDS011;50274;45.640;11.756;2022-10-17T06:59:43;42.72;;;23.50;;
63016;SDS011;50274;45.640;11.756;2022-10-17T07:02:09;44.17;;;23.33;;
63016;SDS011;50274;45.640;11.756;2022-10-17T07:04:35;39.20;;;23.13;;
63016;SDS011;50274;45.640;11.756;2022-10-17T07:07:01;43.83;;;24.42;;
63016;SDS011;50274;45.640;11.756;2022-10-17T07:09:30;48.05;;;25.17;;
63016;SDS011;50274;45.640;11.756;2022-10-17T07:11:57;50.20;;;25.83;;
63016;SDS011;50274;45.640;11.756;2022-10-17T07:14:24;53.00;;;27.27;;
63016;SDS011;50274;45.640;11.756;2022-10-17T07:16:56;61.42;;;28.27;;
63016;SDS011;50274;45.640;11.756;2022-10-17T07:19:23;61.03;;;31.15;;
63016;SDS011;50274;45.640;11.756;2022-10-17T07:21:49;62.83;;;31.75;;
63016;SDS011;50274;45.640;11.756;2022-10-17T07:24:15;69.27;;;35.50;;
63016;SDS011;50274;45.640;11.756;2022-10-17T07:26:40;65.72;;;33.97;;
63016;SDS011;50274;45.640;11.756;2022-10-17T07:29:06;64.67;;;34.37;;
63016;SDS011;50274;45.640;11.756;2022-10-17T07:31:33;58.25;;;33.13;;
63016;SDS011;50274;45.640;11.756;2022-10-17T07:34:00;79.05;;;33.38;;
63016;SDS011;50274;45.640;11.756;2022-10-17T07:36:27;53.95;;;29.08;;
63016;SDS011;50274;45.640;11.756;2022-10-17T07:38:52;58.33;;;28.80;;
63016;SDS011;50274;45.640;11.756;2022-10-17T07:41:18;54.38;;;29.00;;
63016;SDS011;50274;45.640;11.756;2022-10-17T07:43:44;54.50;;;29.43;;
63016;SDS011;50274;45.640;11.756;2022-10-17T07:46:10;56.70;;;27.83;;
63016;SDS011;50274;45.640;11.756;2022-10-17T07:48:36;56.67;;;28.35;;
63016;SDS011;50274;45.640;11.756;2022-10-17T07:51:04;47.80;;;26.85;;
63016;SDS011;50274;45.640;11.756;2022-10-17T07:53:31;51.00;;;28.97;;
63016;SDS011;50274;45.640;11.756;2022-10-17T07:56:02;56.28;;;29.55;;
63016;SDS011;50274;45.640;11.756;2022-10-17T07:58:32;47.08;;;27.30;;
63016;SDS011;50274;45.640;11.756;2022-10-17T08:01:08;52.38;;;31.27;;
63016;SDS011;50274;45.640;11.756;2022-10-17T08:03:38;44.92;;;27.90;;
63016;SDS011;50274;45.640;11.756;2022-10-17T08:06:05;50.27;;;29.83;;
63016;SDS011;50274;45.640;11.756;2022-10-17T08:08:30;55.67;;;31.42;;
63016;SDS011;50274;45.640;11.756;2022-10-17T08:11:00;46.07;;;28.33;;
63016;SDS011;50274;45.640;11.756;2022-10-17T08:13:28;46.33;;;27.35;;
63016;SDS011;50274;45.640;11.756;2022-10-17T08:15:57;48.17;;;29.88;;
63016;SDS011;50274;45.640;11.756;2022-10-17T08:18:24;47.00;;;29.63;;
63016;SDS011;50274;45.640;11.756;2022-10-17T08:20:50;41.70;;;27.07;;
63016;SDS011;50274;45.640;11.756;2022-10-17T08:23:15;51.22;;;30.08;;
63016;SDS011;50274;45.640;11.756;2022-10-17T08:25:41;50.87;;;31.60;;
63016;SDS011;50274;45.640;11.756;2022-10-17T08:28:07;44.63;;;26.90;;
63016;SDS011;50274;45.640;11.756;2022-10-17T08:30:33;43.87;;;27.57;;
63016;SDS011;50274;45.640;11.756;2022-10-17T08:32:58;45.22;;;25.55;;
63016;SDS011;50274;45.640;11.756;2022-10-17T08:35:24;44.70;;;28.30;;
63016;SDS011;50274;45.640;11.756;2022-10-17T08:37:50;43.47;;;27.05;;
63016;SDS011;50274;45.640;11.756;2022-10-17T08:40:18;50.63;;;29.93;;
63016;SDS011;50274;45.640;11.756;2022-10-17T08:45:32;59.83;;;32.08;;
63016;SDS011;50274;45.640;11.756;2022-10-17T08:48:04;53.40;;;30.75;;
63016;SDS011;50274;45.640;11.756;2022-10-17T08:50:51;58.72;;;30.50;;
63016;SDS011;50274;45.640;11.756;2022-10-17T08:53:24;59.77;;;30.73;;
63016;SDS011;50274;45.640;11.756;2022-10-17T08:55:59;64.55;;;32.60;;
63016;SDS011;50274;45.640;11.756;2022-10-17T08:58:37;63.05;;;33.50;;
63016;SDS011;50274;45.640;11.756;2022-10-17T09:01:07;57.22;;;31.52;;
63016;SDS011;50274;45.640;11.756;2022-10-17T09:03:48;59.30;;;30.90;;
63016;SDS011;50274;45.640;11.756;2022-10-17T09:09:45;54.35;;;31.77;;
63016;SDS011;50274;45.640;11.756;2022-10-17T09:11:45;54.42;;;29.88;;
63016;SDS011;50274;45.640;11.756;2022-10-17T09:16:54;48.75;;;28.05;;
63016;SDS011;50274;45.640;11.756;2022-10-17T09:19:35;48.90;;;28.33;;
63016;SDS011;50274;45.640;11.756;2022-10-17T09:22:15;47.05;;;28.40;;
63016;SDS011;50274;45.640;11.756;2022-10-17T09:24:58;44.25;;;26.75;;
63016;SDS011;50274;45.640;11.756;2022-10-17T09:27:47;50.15;;;31.30;;
63016;SDS011;50274;45.640;11.756;2022-10-17T09:33:00;49.23;;;28.87;;
63016;SDS011;50274;45.640;11.756;2022-10-17T09:35:34;54.80;;;29.23;;
63016;SDS011;50274;45.640;11.756;2022-10-17T09:38:00;51.15;;;29.48;;
63016;SDS011;50274;45.640;11.756;2022-10-17T09:40:29;58.42;;;33.00;;
63016;SDS011;50274;45.640;11.756;2022-10-17T09:42:57;57.70;;;30.57;;
63016;SDS011;50274;45.640;11.756;2022-10-17T09:45:25;56.92;;;31.98;;
63016;SDS011;50274;45.640;11.756;2022-10-17T09:48:38;54.08;;;31.35;;
63016;SDS011;50274;45.640;11.756;2022-10-17T09:50:44;50.83;;;30.42;;
63016;SDS011;50274;45.640;11.756;2022-10-17T09:53:14;50.08;;;29.38;;
63016;SDS011;50274;45.640;11.756;2022-10-17T09:55:50;46.30;;;27.90;;
63016;SDS011;50274;45.640;11.756;2022-10-17T09:58:22;51.03;;;31.08;;
63016;SDS011;50274;45.640;11.756;2022-10-17T10:00:48;42.35;;;26.75;;
63016;SDS011;50274;45.640;11.756;2022-10-17T10:08:49;50.13;;;32.13;;
63016;SDS011;50274;45.640;11.756;2022-10-17T10:11:17;52.17;;;31.60;;
63016;SDS011;50274;45.640;11.756;2022-10-17T10:13:47;49.92;;;31.40;;
63016;SDS011;50274;45.640;11.756;2022-10-17T10:16:15;50.58;;;31.45;;
63016;SDS011;50274;45.640;11.756;2022-10-17T10:18:44;53.03;;;34.40;;
63016;SDS011;50274;45.640;11.756;2022-10-17T10:21:20;49.23;;;32.23;;
63016;SDS011;50274;45.640;11.756;2022-10-17T10:26:40;48.47;;;30.75;;
63016;SDS011;50274;45.640;11.756;2022-10-17T10:31:46;55.13;;;33.20;;
63016;SDS011;50274;45.640;11.756;2022-10-17T10:34:19;51.43;;;31.03;;
63016;SDS011;50274;45.640;11.756;2022-10-17T10:37:36;54.63;;;33.97;;
63016;SDS011;50274;45.640;11.756;2022-10-17T10:39:54;57.92;;;33.50;;
63016;SDS011;50274;45.640;11.756;2022-10-17T10:42:26;52.33;;;32.88;;
63016;SDS011;50274;45.640;11.756;2022-10-17T10:45:01;50.58;;;31.63;;
63016;SDS011;50274;45.640;11.756;2022-10-17T10:48:29;52.33;;;32.27;;
63016;SDS011;50274;45.640;11.756;2022-10-17T10:50:46;57.10;;;35.55;;
63016;SDS011;50274;45.640;11.756;2022-10-17T11:07:17;50.55;;;29.63;;
63016;SDS011;50274;45.640;11.756;2022-10-17T11:12:52;55.70;;;35.88;;
63016;SDS011;50274;45.640;11.756;2022-10-17T11:15:41;48.63;;;31.77;;
63016;SDS011;50274;45.640;11.756;2022-10-17T11:21:14;52.08;;;33.15;;
63016;SDS011;50274;45.640;11.756;2022-10-17T11:26:39;49.63;;;32.00;;
63016;SDS011;50274;45.640;11.756;2022-10-17T11:29:09;52.67;;;33.03;;
63016;SDS011;50274;45.640;11.756;2022-10-17T11:31:38;46.53;;;29.52;;
63016;SDS011;50274;45.640;11.756;2022-10-17T11:34:09;48.22;;;32.38;;
63016;SDS011;50274;45.640;11.756;2022-10-17T11:36:43;49.67;;;32.60;;
63016;SDS011;50274;45.640;11.756;2022-10-17T11:39:14;49.63;;;32.47;;
63016;SDS011;50274;45.640;11.756;2022-10-17T11:42:11;47.63;;;30.67;;
63016;SDS011;50274;45.640;11.756;2022-10-17T11:44:45;49.30;;;32.63;;
63016;SDS011;50274;45.640;11.756;2022-10-17T11:50:15;44.38;;;28.98;;
63016;SDS011;50274;45.640;11.756;2022-10-17T11:52:57;46.30;;;29.73;;
63016;SDS011;50274;45.640;11.756;2022-10-17T11:55:28;46.07;;;31.30;;
63016;SDS011;50274;45.640;11.756;2022-10-17T12:01:08;44.63;;;29.75;;
63016;SDS011;50274;45.640;11.756;2022-10-17T12:09:44;41.10;;;27.20;;
63016;SDS011;50274;45.640;11.756;2022-10-17T12:12:26;45.40;;;30.73;;
63016;SDS011;50274;45.640;11.756;2022-10-17T12:17:45;39.17;;;24.15;;
63016;SDS011;50274;45.640;11.756;2022-10-17T12:20:36;36.33;;;24.85;;
63016;SDS011;50274;45.640;11.756;2022-10-17T12:25:36;42.80;;;28.83;;
63016;SDS011;50274;45.640;11.756;2022-10-17T12:28:15;46.15;;;29.48;;
63016;SDS011;50274;45.640;11.756;2022-10-17T12:33:30;46.40;;;30.55;;
63016;SDS011;50274;45.640;11.756;2022-10-17T12:38:41;42.00;;;28.75;;
63016;SDS011;50274;45.640;11.756;2022-10-17T12:41:07;35.58;;;23.48;;
63016;SDS011;50274;45.640;11.756;2022-10-17T12:43:44;42.30;;;30.00;;
63016;SDS011;50274;45.640;11.756;2022-10-17T12:46:12;42.85;;;27.98;;
63016;SDS011;50274;45.640;11.756;2022-10-17T12:48:58;47.23;;;28.90;;
63016;SDS011;50274;45.640;11.756;2022-10-17T12:51:26;39.42;;;26.23;;
63016;SDS011;50274;45.640;11.756;2022-10-17T12:54:13;44.72;;;29.00;;
63016;SDS011;50274;45.640;11.756;2022-10-17T12:56:41;39.92;;;26.42;;
63016;SDS011;50274;45.640;11.756;2022-10-17T12:59:23;44.22;;;29.25;;
63016;SDS011;50274;45.640;11.756;2022-10-17T13:01:51;42.30;;;27.90;;
63016;SDS011;50274;45.640;11.756;2022-10-17T13:04:21;45.40;;;29.48;;
63016;SDS011;50274;45.640;11.756;2022-10-17T13:06:50;42.20;;;27.42;;
63016;SDS011;50274;45.640;11.756;2022-10-17T13:09:31;46.15;;;31.90;;
63016;SDS011;50274;45.640;11.756;2022-10-17T13:12:02;38.70;;;26.88;;
63016;SDS011;50274;45.640;11.756;2022-10-17T13:14:30;40.03;;;27.13;;
63016;SDS011;50274;45.640;11.756;2022-10-17T13:16:59;32.08;;;22.88;;
63016;SDS011;50274;45.640;11.756;2022-10-17T13:19:44;38.95;;;26.88;;
63016;SDS011;50274;45.640;11.756;2022-10-17T13:24:50;52.30;;;32.72;;
63016;SDS011;50274;45.640;11.756;2022-10-17T13:27:25;39.57;;;25.33;;
63016;SDS011;50274;45.640;11.756;2022-10-17T13:29:54;38.03;;;25.42;;
63016;SDS011;50274;45.640;11.756;2022-10-17T13:32:21;40.53;;;27.65;;
63016;SDS011;50274;45.640;11.756;2022-10-17T13:35:08;37.03;;;26.17;;
63016;SDS011;50274;45.640;11.756;2022-10-17T13:37:36;39.80;;;25.15;;
63016;SDS011;50274;45.640;11.756;2022-10-17T13:40:19;37.87;;;24.90;;
63016;SDS011;50274;45.640;11.756;2022-10-17T13:42:47;37.17;;;25.48;;
63016;SDS011;50274;45.640;11.756;2022-10-17T13:45:33;37.75;;;26.08;;
63016;SDS011;50274;45.640;11.756;2022-10-17T13:48:02;38.95;;;26.05;;
63016;SDS011;50274;45.640;11.756;2022-10-17T13:50:41;37.50;;;25.85;;
63016;SDS011;50274;45.640;11.756;2022-10-17T13:56:15;43.30;;;28.02;;
63016;SDS011;50274;45.640;11.756;2022-10-17T13:58:55;40.63;;;25.92;;
63016;SDS011;50274;45.640;11.756;2022-10-17T14:01:25;40.80;;;27.05;;
63016;SDS011;50274;45.640;11.756;2022-10-17T14:03:52;39.00;;;25.60;;
63016;SDS011;50274;45.640;11.756;2022-10-17T14:11:29;34.10;;;24.42;;
63016;SDS011;50274;45.640;11.756;2022-10-17T14:14:14;37.88;;;23.60;;
63016;SDS011;50274;45.640;11.756;2022-10-17T14:16:43;38.20;;;25.35;;
63016;SDS011;50274;45.640;11.756;2022-10-17T14:19:15;44.07;;;28.70;;
63016;SDS011;50274;45.640;11.756;2022-10-17T14:24:39;35.22;;;24.27;;
63016;SDS011;50274;45.640;11.756;2022-10-17T14:29:51;37.53;;;25.92;;
63016;SDS011;50274;45.640;11.756;2022-10-17T14:32:18;40.67;;;25.23;;
63016;SDS011;50274;45.640;11.756;2022-10-17T14:34:44;28.10;;;19.33;;
63016;SDS011;50274;45.640;11.756;2022-10-17T14:39:57;35.35;;;22.50;;
63016;SDS011;50274;45.640;11.756;2022-10-17T14:42:24;40.05;;;25.42;;
63016;SDS011;50274;45.640;11.756;2022-10-17T14:44:51;37.77;;;25.20;;
63016;SDS011;50274;45.640;11.756;2022-10-17T14:47:19;36.42;;;23.35;;
63016;SDS011;50274;45.640;11.756;2022-10-17T14:49:49;36.47;;;24.77;;
63016;SDS011;50274;45.640;11.756;2022-10-17T14:54:42;38.40;;;23.63;;
63016;SDS011;50274;45.640;11.756;2022-10-17T14:57:16;42.28;;;27.33;;
63016;SDS011;50274;45.640;11.756;2022-10-17T14:59:43;38.65;;;26.23;;
63016;SDS011;50274;45.640;11.756;2022-10-17T15:02:10;38.00;;;26.58;;
63016;SDS011;50274;45.640;11.756;2022-10-17T15:04:36;38.93;;;23.73;;
63016;SDS011;50274;45.640;11.756;2022-10-17T15:07:02;33.58;;;22.67;;
63016;SDS011;50274;45.640;11.756;2022-10-17T15:09:27;32.22;;;21.58;;
63016;SDS011;50274;45.640;11.756;2022-10-17T15:12:03;34.50;;;21.57;;
63016;SDS011;50274;45.640;11.756;2022-10-17T15:14:36;34.22;;;21.50;;
63016;SDS011;50274;45.640;11.756;2022-10-17T15:17:04;38.58;;;25.35;;
63016;SDS011;50274;45.640;11.756;2022-10-17T15:19:39;35.03;;;23.10;;
63016;SDS011;50274;45.640;11.756;2022-10-17T15:22:05;35.33;;;23.42;;
63016;SDS011;50274;45.640;11.756;2022-10-17T15:24:31;40.07;;;27.50;;
63016;SDS011;50274;45.640;11.756;2022-10-17T15:26:56;41.65;;;25.80;;
63016;SDS011;50274;45.640;11.756;2022-10-17T15:29:22;37.83;;;23.23;;
63016;SDS011;50274;45.640;11.756;2022-10-17T15:31:48;28.92;;;21.23;;
63016;SDS011;50274;45.640;11.756;2022-10-17T15:34:14;29.80;;;20.37;;
63016;SDS011;50274;45.640;11.756;2022-10-17T15:36:40;28.10;;;19.60;;
63016;SDS011;50274;45.640;11.756;2022-10-17T15:39:12;32.60;;;21.55;;
63016;SDS011;50274;45.640;11.756;2022-10-17T15:41:38;33.30;;;21.80;;
63016;SDS011;50274;45.640;11.756;2022-10-17T15:44:03;28.93;;;21.07;;
63016;SDS011;50274;45.640;11.756;2022-10-17T15:46:31;34.22;;;21.73;;
63016;SDS011;50274;45.640;11.756;2022-10-17T15:49:03;34.00;;;22.85;;
63016;SDS011;50274;45.640;11.756;2022-10-17T15:51:34;29.47;;;21.03;;
63016;SDS011;50274;45.640;11.756;2022-10-17T15:54:00;32.17;;;21.02;;
63016;SDS011;50274;45.640;11.756;2022-10-17T15:59:23;32.03;;;22.45;;
63016;SDS011;50274;45.640;11.756;2022-10-17T16:01:54;33.75;;;22.65;;
63016;SDS011;50274;45.640;11.756;2022-10-17T16:04:20;29.50;;;20.70;;
63016;SDS011;50274;45.640;11.756;2022-10-17T16:06:48;33.67;;;21.60;;
63016;SDS011;50274;45.640;11.756;2022-10-17T16:09:13;31.55;;;20.60;;
63016;SDS011;50274;45.640;11.756;2022-10-17T16:11:42;35.30;;;22.63;;
63016;SDS011;50274;45.640;11.756;2022-10-17T16:14:12;31.30;;;22.17;;
63016;SDS011;50274;45.640;11.756;2022-10-17T16:16:40;33.38;;;22.33;;